sensor_id;sensor_type;location;lat;lon;timestamp;pressure;altitude;pressure_sealevel;temperature;humidity
49397;BME280;35615;41.410;2.194;2023-11-19T00:00:32;102249.81;;;20.59;41.25
49397;BME280;35615;41.410;2.194;2023-11-19T00:03:03;102234.13;;;20.63;43.83
49397;BME280;35615;41.410;2.194;2023-11-19T00:05:35;102228.94;;;20.66;43.99
49397;BME280;35615;41.410;2.194;2023-11-19T00:08:08;102228.06;;;20.65;44.37
49397;BME280;35615;41.410;2.194;2023-11-19T00:10:47;102233.72;;;20.43;45.52
49397;BME280;35615;41.410;2.194;2023-11-19T00:13:21;102223.13;;;20.40;45.53
49397;BME280;35615;41.410;2.194;2023-11-19T00:15:50;102219.91;;;20.53;45.21
49397;BME280;35615;41.410;2.194;2023-11-19T00:18:27;102217.34;;;20.56;45.59
49397;BME280;35615;41.410;2.194;2023-11-19T00:20:55;102214.75;;;20.57;45.50
49397;BME280;35615;41.410;2.194;2023-11-19T00:23:26;102206.78;;;20.53;45.73
49397;BME280;35615;41.410;2.194;2023-11-19T00:26:02;102206.78;;;20.53;45.39
49397;BME280;35615;41.410;2.194;2023-11-19T00:28:38;102207.59;;;20.50;45.41
49397;BME280;35615;41.410;2.194;2023-11-19T00:31:08;102204.16;;;20.51;45.40
49397;BME280;35615;41.410;2.194;2023-11-19T00:33:44;102199.63;;;20.46;44.99
49397;BME280;35615;41.410;2.194;2023-11-19T00:36:20;102203.19;;;20.49;44.99
49397;BME280;35615;41.410;2.194;2023-11-19T00:39:22;102200.63;;;20.51;45.71
49397;BME280;35615;41.410;2.194;2023-11-19T00:42:14;102196.16;;;20.47;45.50
49397;BME280;35615;41.410;2.194;2023-11-19T00:44:52;102202.34;;;20.50;45.62
49397;BME280;35615;41.410;2.194;2023-11-19T00:47:41;102202.22;;;20.44;46.02
49397;BME280;35615;41.410;2.194;2023-11-19T00:50:27;102202.22;;;20.44;46.05
49397;BME280;35615;41.410;2.194;2023-11-19T00:53:08;102196.88;;;20.40;46.26
49397;BME280;35615;41.410;2.194;2023-11-19T00:55:53;102198.63;;;20.41;46.38
49397;BME280;35615;41.410;2.194;2023-11-19T00:58:24;102188.19;;;20.42;45.95
49397;BME280;35615;41.410;2.194;2023-11-19T01:00:52;102189.88;;;20.40;45.95
49397;BME280;35615;41.410;2.194;2023-11-19T01:03:19;102200.25;;;20.36;45.74
49397;BME280;35615;41.410;2.194;2023-11-19T01:05:46;102194.97;;;20.33;45.31
49397;BME280;35615;41.410;2.194;2023-11-19T01:08:14;102191.34;;;20.27;43.86
49397;BME280;35615;41.410;2.194;2023-11-19T01:10:43;102191.53;;;20.37;44.40
49397;BME280;35615;41.410;2.194;2023-11-19T01:13:10;102184.50;;;20.36;44.23
49397;BME280;35615;41.410;2.194;2023-11-19T01:15:38;102189.72;;;20.33;43.49
49397;BME280;35615;41.410;2.194;2023-11-19T01:18:06;102185.09;;;20.21;41.59
49397;BME280;35615;41.410;2.194;2023-11-19T01:20:34;102180.94;;;20.32;41.34
49397;BME280;35615;41.410;2.194;2023-11-19T01:23:02;102179.16;;;20.29;41.71
49397;BME280;35615;41.410;2.194;2023-11-19T01:25:29;102177.41;;;20.30;41.42
49397;BME280;35615;41.410;2.194;2023-11-19T01:27:57;102181.94;;;20.39;41.35
49397;BME280;35615;41.410;2.194;2023-11-19T01:30:25;102179.88;;;20.22;40.41
49397;BME280;35615;41.410;2.194;2023-11-19T01:32:53;102182.56;;;20.27;40.74
49397;BME280;35615;41.410;2.194;2023-11-19T01:35:20;102181.88;;;20.36;40.95
49397;BME280;35615;41.410;2.194;2023-11-19T01:37:50;102184.53;;;20.37;41.07
49397;BME280;35615;41.410;2.194;2023-11-19T01:40:20;102184.63;;;20.40;40.78
49397;BME280;35615;41.410;2.194;2023-11-19T01:42:47;102180.19;;;20.38;40.33
49397;BME280;35615;41.410;2.194;2023-11-19T01:45:36;102184.34;;;20.28;39.31
49397;BME280;35615;41.410;2.194;2023-11-19T01:48:04;102185.44;;;20.38;40.64
49397;BME280;35615;41.410;2.194;2023-11-19T01:50:33;102188.19;;;20.42;39.87
49397;BME280;35615;41.410;2.194;2023-11-19T01:53:00;102188.22;;;20.44;40.53
49397;BME280;35615;41.410;2.194;2023-11-19T01:55:28;102182.13;;;20.45;40.75
49397;BME280;35615;41.410;2.194;2023-11-19T01:57:59;102180.25;;;20.41;40.75
49397;BME280;35615;41.410;2.194;2023-11-19T02:03:31;102168.00;;;20.40;41.29
49397;BME280;35615;41.410;2.194;2023-11-19T02:06:04;102178.19;;;20.26;41.08
49397;BME280;35615;41.410;2.194;2023-11-19T02:08:34;102172.09;;;20.28;41.25
49397;BME280;35615;41.410;2.194;2023-11-19T02:11:02;102179.91;;;20.24;41.11
49397;BME280;35615;41.410;2.194;2023-11-19T02:13:36;102173.91;;;20.29;41.20
49397;BME280;35615;41.410;2.194;2023-11-19T02:16:06;102174.81;;;20.31;41.00
49397;BME280;35615;41.410;2.194;2023-11-19T02:18:38;102172.22;;;20.33;41.28
49397;BME280;35615;41.410;2.194;2023-11-19T02:21:06;102178.94;;;20.19;40.71
49397;BME280;35615;41.410;2.194;2023-11-19T02:23:37;102173.03;;;20.30;40.81
49397;BME280;35615;41.410;2.194;2023-11-19T02:28:55;102161.78;;;20.36;41.06
49397;BME280;35615;41.410;2.194;2023-11-19T02:31:28;102156.47;;;20.33;41.30
49397;BME280;35615;41.410;2.194;2023-11-19T02:33:59;102161.22;;;20.09;41.17
49397;BME280;35615;41.410;2.194;2023-11-19T02:36:34;102155.88;;;20.06;41.10
49397;BME280;35615;41.410;2.194;2023-11-19T02:39:09;102144.91;;;20.23;41.18
49397;BME280;35615;41.410;2.194;2023-11-19T02:41:48;102144.91;;;20.23;41.36
49397;BME280;35615;41.410;2.194;2023-11-19T02:44:19;102144.66;;;20.13;41.33
49397;BME280;35615;41.410;2.194;2023-11-19T02:46:53;102148.22;;;20.15;41.39
49397;BME280;35615;41.410;2.194;2023-11-19T02:49:24;102141.31;;;20.18;41.26
49397;BME280;35615;41.410;2.194;2023-11-19T02:51:56;102135.25;;;20.22;41.45
49397;BME280;35615;41.410;2.194;2023-11-19T02:54:25;102140.47;;;20.21;41.53
49397;BME280;35615;41.410;2.194;2023-11-19T02:57:01;102135.84;;;20.09;41.77
49397;BME280;35615;41.410;2.194;2023-11-19T02:59:52;102123.44;;;20.00;41.95
49397;BME280;35615;41.410;2.194;2023-11-19T03:02:45;102119.97;;;20.03;42.05
49397;BME280;35615;41.410;2.194;2023-11-19T03:05:15;102117.34;;;20.03;41.71
49397;BME280;35615;41.410;2.194;2023-11-19T03:07:43;102124.47;;;20.09;41.29
49397;BME280;35615;41.410;2.194;2023-11-19T03:10:11;102120.94;;;20.07;41.50
49397;BME280;35615;41.410;2.194;2023-11-19T03:12:43;102110.38;;;20.03;41.34
49397;BME280;35615;41.410;2.194;2023-11-19T03:15:11;102117.28;;;20.00;41.53
49397;BME280;35615;41.410;2.194;2023-11-19T03:17:39;102117.31;;;20.01;41.36
49397;BME280;35615;41.410;2.194;2023-11-19T03:20:09;102119.72;;;19.91;40.85
49397;BME280;35615;41.410;2.194;2023-11-19T03:22:37;102109.41;;;20.00;40.99
49397;BME280;35615;41.410;2.194;2023-11-19T03:25:05;102105.13;;;20.03;41.53
49397;BME280;35615;41.410;2.194;2023-11-19T03:27:36;102111.13;;;19.98;41.24
49397;BME280;35615;41.410;2.194;2023-11-19T03:30:04;102109.41;;;19.98;41.04
49397;BME280;35615;41.410;2.194;2023-11-19T03:32:32;102112.06;;;20.01;41.20
49397;BME280;35615;41.410;2.194;2023-11-19T03:35:01;102118.25;;;20.05;41.16
49397;BME280;35615;41.410;2.194;2023-11-19T03:37:31;102104.19;;;20.00;41.10
49397;BME280;35615;41.410;2.194;2023-11-19T03:39:59;102113.78;;;19.99;41.21
49397;BME280;35615;41.410;2.194;2023-11-19T03:42:29;102114.75;;;20.05;41.29
49397;BME280;35615;41.410;2.194;2023-11-19T03:45:00;102105.16;;;20.05;41.18
49397;BME280;35615;41.410;2.194;2023-11-19T03:47:27;102108.66;;;20.06;41.25
49397;BME280;35615;41.410;2.194;2023-11-19T03:49:55;102100.34;;;19.84;40.89
49397;BME280;35615;41.410;2.194;2023-11-19T03:52:22;102110.75;;;19.81;41.12
49397;BME280;35615;41.410;2.194;2023-11-19T03:54:49;102112.41;;;19.76;41.05
49397;BME280;35615;41.410;2.194;2023-11-19T03:57:17;102109.75;;;19.75;41.18
49397;BME280;35615;41.410;2.194;2023-11-19T03:59:44;102111.59;;;19.79;41.24
49397;BME280;35615;41.410;2.194;2023-11-19T04:02:12;102104.81;;;19.88;41.38
49397;BME280;35615;41.410;2.194;2023-11-19T04:04:40;102100.38;;;19.86;41.32
49397;BME280;35615;41.410;2.194;2023-11-19T04:07:09;102102.84;;;19.78;42.17
49397;BME280;35615;41.410;2.194;2023-11-19T04:09:37;102100.28;;;19.81;41.75
49397;BME280;35615;41.410;2.194;2023-11-19T04:12:05;102100.19;;;19.77;41.97
49397;BME280;35615;41.410;2.194;2023-11-19T04:14:33;102105.50;;;19.81;41.95
49397;BME280;35615;41.410;2.194;2023-11-19T04:17:03;102101.13;;;19.80;42.08
49397;BME280;35615;41.410;2.194;2023-11-19T04:19:39;102101.16;;;19.82;42.00
49397;BME280;35615;41.410;2.194;2023-11-19T04:22:13;102091.50;;;19.81;42.19
49397;BME280;35615;41.410;2.194;2023-11-19T04:24:44;102095.81;;;19.77;42.39
49397;BME280;35615;41.410;2.194;2023-11-19T04:27:18;102092.09;;;19.67;42.40
49397;BME280;35615;41.410;2.194;2023-11-19T04:29:48;102098.06;;;19.60;42.31
49397;BME280;35615;41.410;2.194;2023-11-19T04:32:18;102097.97;;;19.56;42.62
49397;BME280;35615;41.410;2.194;2023-11-19T04:34:48;102094.38;;;19.54;42.61
49397;BME280;35615;41.410;2.194;2023-11-19T04:37:16;102095.16;;;19.50;42.87
49397;BME280;35615;41.410;2.194;2023-11-19T04:39:45;102096.63;;;19.38;43.05
49397;BME280;35615;41.410;2.194;2023-11-19T04:42:14;102092.22;;;19.36;42.95
49397;BME280;35615;41.410;2.194;2023-11-19T04:44:48;102099.19;;;19.35;43.13
49397;BME280;35615;41.410;2.194;2023-11-19T04:47:17;102093.84;;;19.31;42.99
49397;BME280;35615;41.410;2.194;2023-11-19T04:49:44;102105.94;;;19.26;43.09
49397;BME280;35615;41.410;2.194;2023-11-19T04:52:12;102104.13;;;19.22;43.31
49397;BME280;35615;41.410;2.194;2023-11-19T04:54:43;102101.44;;;19.19;43.46
49397;BME280;35615;41.410;2.194;2023-11-19T04:57:11;102091.59;;;19.10;43.53
49397;BME280;35615;41.410;2.194;2023-11-19T04:59:40;102101.94;;;19.05;43.72
49397;BME280;35615;41.410;2.194;2023-11-19T05:02:15;102099.47;;;19.10;43.75
49397;BME280;35615;41.410;2.194;2023-11-19T05:04:56;102106.91;;;18.95;43.68
49397;BME280;35615;41.410;2.194;2023-11-19T05:07:27;102098.16;;;18.94;43.52
49397;BME280;35615;41.410;2.194;2023-11-19T05:09:55;102110.16;;;18.84;43.83
49397;BME280;35615;41.410;2.194;2023-11-19T05:12:26;102104.09;;;18.85;43.82
49397;BME280;35615;41.410;2.194;2023-11-19T05:14:54;102100.22;;;18.73;44.00
49397;BME280;35615;41.410;2.194;2023-11-19T05:17:23;102107.16;;;18.71;44.47
49397;BME280;35615;41.410;2.194;2023-11-19T05:19:53;102107.06;;;18.66;44.33
49397;BME280;35615;41.410;2.194;2023-11-19T05:22:22;102107.09;;;18.68;44.21
49397;BME280;35615;41.410;2.194;2023-11-19T05:24:52;102103.38;;;18.61;44.25
49397;BME280;35615;41.410;2.194;2023-11-19T05:27:22;102108.63;;;18.61;44.76
49397;BME280;35615;41.410;2.194;2023-11-19T05:29:51;102113.75;;;18.56;44.31
49397;BME280;35615;41.410;2.194;2023-11-19T05:32:20;102102.16;;;18.48;44.86
49397;BME280;35615;41.410;2.194;2023-11-19T05:34:48;102108.31;;;18.50;44.54
49397;BME280;35615;41.410;2.194;2023-11-19T05:37:19;102107.56;;;18.53;44.39
49397;BME280;35615;41.410;2.194;2023-11-19T05:39:49;102114.38;;;18.48;44.78
49397;BME280;35615;41.410;2.194;2023-11-19T05:42:21;102115.41;;;18.53;44.69
49397;BME280;35615;41.410;2.194;2023-11-19T05:44:49;102109.91;;;18.44;44.67
49397;BME280;35615;41.410;2.194;2023-11-19T05:47:18;102115.88;;;18.40;44.64
49397;BME280;35615;41.410;2.194;2023-11-19T05:49:52;102106.09;;;18.33;45.07
49397;BME280;35615;41.410;2.194;2023-11-19T05:52:21;102112.00;;;18.25;44.88
49397;BME280;35615;41.410;2.194;2023-11-19T05:54:54;102109.56;;;18.32;44.95
49397;BME280;35615;41.410;2.194;2023-11-19T05:57:22;102109.47;;;18.28;45.05
49397;BME280;35615;41.410;2.194;2023-11-19T05:59:53;102114.63;;;18.25;44.97
49397;BME280;35615;41.410;2.194;2023-11-19T06:02:21;102108.56;;;18.28;45.04
49397;BME280;35615;41.410;2.194;2023-11-19T06:04:54;102109.31;;;18.22;44.97
49397;BME280;35615;41.410;2.194;2023-11-19T06:07:27;102105.72;;;18.19;45.04
49397;BME280;35615;41.410;2.194;2023-11-19T06:09:55;102101.47;;;18.22;45.32
49397;BME280;35615;41.410;2.194;2023-11-19T06:12:27;102099.72;;;18.23;45.28
49397;BME280;35615;41.410;2.194;2023-11-19T06:14:55;102108.34;;;18.19;45.51
49397;BME280;35615;41.410;2.194;2023-11-19T06:17:24;102104.84;;;18.18;45.62
49397;BME280;35615;41.410;2.194;2023-11-19T06:19:52;102105.72;;;18.19;45.37
49397;BME280;35615;41.410;2.194;2023-11-19T06:22:23;102118.66;;;18.14;45.70
49397;BME280;35615;41.410;2.194;2023-11-19T06:24:51;102117.59;;;18.08;45.75
49397;BME280;35615;41.410;2.194;2023-11-19T06:27:22;102114.69;;;17.97;46.17
49397;BME280;35615;41.410;2.194;2023-11-19T06:29:52;102113.63;;;17.92;45.89
49397;BME280;35615;41.410;2.194;2023-11-19T06:32:21;102121.53;;;17.93;46.06
49397;BME280;35615;41.410;2.194;2023-11-19T06:34:49;102124.00;;;17.89;45.88
49397;BME280;35615;41.410;2.194;2023-11-19T06:37:20;102127.38;;;17.85;46.38
49397;BME280;35615;41.410;2.194;2023-11-19T06:39:51;102127.44;;;17.86;46.27
49397;BME280;35615;41.410;2.194;2023-11-19T06:42:21;102137.78;;;17.83;46.45
49397;BME280;35615;41.410;2.194;2023-11-19T06:44:54;102142.06;;;17.81;46.76
49397;BME280;35615;41.410;2.194;2023-11-19T06:47:30;102145.34;;;17.74;46.59
49397;BME280;35615;41.410;2.194;2023-11-19T06:50:00;102152.34;;;17.75;46.55
49397;BME280;35615;41.410;2.194;2023-11-19T06:52:32;102159.06;;;17.68;46.84
49397;BME280;35615;41.410;2.194;2023-11-19T06:55:05;102161.59;;;17.65;47.12
49397;BME280;35615;41.410;2.194;2023-11-19T06:57:36;102162.28;;;17.60;46.70
49397;BME280;35615;41.410;2.194;2023-11-19T07:00:06;102163.09;;;17.59;47.09
49397;BME280;35615;41.410;2.194;2023-11-19T07:02:37;102158.94;;;17.64;46.92
49397;BME280;35615;41.410;2.194;2023-11-19T07:05:07;102162.28;;;17.60;47.04
49397;BME280;35615;41.410;2.194;2023-11-19T07:07:40;102165.69;;;17.57;46.73
49397;BME280;35615;41.410;2.194;2023-11-19T07:10:08;102161.34;;;17.58;46.86
49397;BME280;35615;41.410;2.194;2023-11-19T07:12:37;102156.16;;;17.59;46.73
49397;BME280;35615;41.410;2.194;2023-11-19T07:15:05;102163.16;;;17.60;47.19
49397;BME280;35615;41.410;2.194;2023-11-19T07:17:32;102162.31;;;17.61;47.18
49397;BME280;35615;41.410;2.194;2023-11-19T07:20:02;102164.09;;;17.62;46.62
49397;BME280;35615;41.410;2.194;2023-11-19T07:22:33;102166.88;;;17.67;46.93
49397;BME280;35615;41.410;2.194;2023-11-19T07:25:08;102173.97;;;17.71;46.88
49397;BME280;35615;41.410;2.194;2023-11-19T07:27:41;102171.38;;;17.71;47.18
49397;BME280;35615;41.410;2.194;2023-11-19T07:30:19;102173.88;;;17.68;47.02
49397;BME280;35615;41.410;2.194;2023-11-19T07:32:52;102179.84;;;17.64;46.96
49397;BME280;35615;41.410;2.194;2023-11-19T07:35:26;102185.19;;;17.68;46.92
49397;BME280;35615;41.410;2.194;2023-11-19T07:37:59;102191.41;;;17.70;47.11
49397;BME280;35615;41.410;2.194;2023-11-19T07:40:33;102194.84;;;17.69;47.35
49397;BME280;35615;41.410;2.194;2023-11-19T07:43:06;102196.09;;;17.81;47.18
49397;BME280;35615;41.410;2.194;2023-11-19T07:45:34;102201.19;;;17.76;47.12
49397;BME280;35615;41.410;2.194;2023-11-19T07:48:06;102201.19;;;17.76;46.68
49397;BME280;35615;41.410;2.194;2023-11-19T07:50:37;102204.63;;;17.75;46.91
49397;BME280;35615;41.410;2.194;2023-11-19T07:53:10;102206.44;;;17.78;47.14
49397;BME280;35615;41.410;2.194;2023-11-19T07:55:43;102216.06;;;17.79;47.16
49397;BME280;35615;41.410;2.194;2023-11-19T07:58:26;102226.25;;;17.71;46.79
49397;BME280;35615;41.410;2.194;2023-11-19T08:00:56;102216.56;;;17.68;47.24
49397;BME280;35615;41.410;2.194;2023-11-19T08:03:27;102219.25;;;17.70;47.08
49397;BME280;35615;41.410;2.194;2023-11-19T08:06:03;102216.69;;;17.71;47.03
49397;BME280;35615;41.410;2.194;2023-11-19T08:08:37;102226.81;;;17.62;47.04
49397;BME280;35615;41.410;2.194;2023-11-19T08:11:09;102230.44;;;17.66;46.76
49397;BME280;35615;41.410;2.194;2023-11-19T08:13:37;102231.69;;;17.77;46.88
49397;BME280;35615;41.410;2.194;2023-11-19T08:16:07;102232.53;;;17.76;47.25
49397;BME280;35615;41.410;2.194;2023-11-19T08:18:38;102229.25;;;17.83;47.23
49397;BME280;35615;41.410;2.194;2023-11-19T08:21:08;102240.19;;;17.97;46.91
49397;BME280;35615;41.410;2.194;2023-11-19T08:23:38;102238.72;;;18.07;46.62
49397;BME280;35615;41.410;2.194;2023-11-19T08:26:06;102242.88;;;18.28;46.67
49397;BME280;35615;41.410;2.194;2023-11-19T08:28:37;102244.38;;;18.49;46.18
49397;BME280;35615;41.410;2.194;2023-11-19T08:31:04;102245.34;;;18.81;45.61
49397;BME280;35615;41.410;2.194;2023-11-19T08:33:32;102247.03;;;19.10;44.94
49397;BME280;35615;41.410;2.194;2023-11-19T08:36:14;102240.88;;;19.41;44.41
49397;BME280;35615;41.410;2.194;2023-11-19T08:38:45;102246.22;;;19.79;43.94
49397;BME280;35615;41.410;2.194;2023-11-19T08:41:13;102239.09;;;20.11;43.23
49397;BME280;35615;41.410;2.194;2023-11-19T08:43:40;102238.06;;;20.42;42.69
49397;BME280;35615;41.410;2.194;2023-11-19T08:46:11;102243.22;;;20.80;41.80
49397;BME280;35615;41.410;2.194;2023-11-19T08:48:39;102235.09;;;21.13;41.56
49397;BME280;35615;41.410;2.194;2023-11-19T08:51:19;102235.53;;;21.36;41.01
49397;BME280;35615;41.410;2.194;2023-11-19T08:53:46;102238.56;;;21.60;41.09
49397;BME280;35615;41.410;2.194;2023-11-19T08:56:17;102238.16;;;21.87;40.03
49397;BME280;35615;41.410;2.194;2023-11-19T08:58:45;102233.38;;;22.18;39.73
49397;BME280;35615;41.410;2.194;2023-11-19T09:01:16;102239.88;;;22.46;39.30
49397;BME280;35615;41.410;2.194;2023-11-19T09:03:46;102233.13;;;22.69;38.75
49397;BME280;35615;41.410;2.194;2023-11-19T09:06:16;102225.59;;;22.95;37.97
49397;BME280;35615;41.410;2.194;2023-11-19T09:08:44;102227.56;;;23.17;37.44
49397;BME280;35615;41.410;2.194;2023-11-19T09:11:11;102228.66;;;23.39;36.98
49397;BME280;35615;41.410;2.194;2023-11-19T09:13:41;102234.97;;;23.60;36.26
49397;BME280;35615;41.410;2.194;2023-11-19T09:16:14;102231.69;;;23.85;36.45
49397;BME280;35615;41.410;2.194;2023-11-19T09:18:43;102222.94;;;23.95;36.39
49397;BME280;35615;41.410;2.194;2023-11-19T09:21:11;102227.44;;;24.13;35.86
49397;BME280;35615;41.410;2.194;2023-11-19T09:23:44;102222.31;;;24.34;35.36
49397;BME280;35615;41.410;2.194;2023-11-19T09:26:19;102224.16;;;24.55;35.26
49397;BME280;35615;41.410;2.194;2023-11-19T09:28:51;102229.53;;;24.81;34.68
49397;BME280;35615;41.410;2.194;2023-11-19T09:31:19;102224.31;;;25.04;34.69
49397;BME280;35615;41.410;2.194;2023-11-19T09:33:46;102229.66;;;25.19;34.05
49397;BME280;35615;41.410;2.194;2023-11-19T09:36:20;102227.88;;;25.34;33.83
49397;BME280;35615;41.410;2.194;2023-11-19T09:38:57;102228.78;;;25.56;33.88
49397;BME280;35615;41.410;2.194;2023-11-19T09:41:24;102235.84;;;25.78;33.64
49397;BME280;35615;41.410;2.194;2023-11-19T09:44:00;102233.22;;;25.75;32.13
49397;BME280;35615;41.410;2.194;2023-11-19T09:46:33;102234.06;;;25.98;32.94
49397;BME280;35615;41.410;2.194;2023-11-19T09:49:01;102234.00;;;26.12;32.82
49397;BME280;35615;41.410;2.194;2023-11-19T09:51:36;102242.81;;;26.16;31.73
49397;BME280;35615;41.410;2.194;2023-11-19T09:54:07;102244.59;;;26.21;31.69
49397;BME280;35615;41.410;2.194;2023-11-19T09:56:40;102237.44;;;26.54;32.74
49397;BME280;35615;41.410;2.194;2023-11-19T09:59:11;102238.25;;;26.74;32.67
49397;BME280;35615;41.410;2.194;2023-11-19T10:01:45;102236.34;;;26.95;31.57
49397;BME280;35615;41.410;2.194;2023-11-19T10:04:15;102234.47;;;27.18;31.58
49397;BME280;35615;41.410;2.194;2023-11-19T10:06:58;102237.84;;;27.40;31.32
49397;BME280;35615;41.410;2.194;2023-11-19T10:09:28;102234.09;;;27.67;31.27
49397;BME280;35615;41.410;2.194;2023-11-19T10:11:57;102224.97;;;27.92;30.87
49397;BME280;35615;41.410;2.194;2023-11-19T10:14:25;102234.59;;;28.05;30.28
49397;BME280;35615;41.410;2.194;2023-11-19T10:16:57;102223.94;;;28.08;29.87
49397;BME280;35615;41.410;2.194;2023-11-19T10:19:26;102223.56;;;28.42;30.14
49397;BME280;35615;41.410;2.194;2023-11-19T10:22:03;102221.56;;;28.61;29.14
49397;BME280;35615;41.410;2.194;2023-11-19T10:24:35;102218.63;;;28.78;29.45
49397;BME280;35615;41.410;2.194;2023-11-19T10:27:11;102220.72;;;29.19;28.91
49397;BME280;35615;41.410;2.194;2023-11-19T10:30:02;102219.50;;;29.40;28.33
49397;BME280;35615;41.410;2.194;2023-11-19T10:32:35;102215.63;;;29.59;28.84
49397;BME280;35615;41.410;2.194;2023-11-19T10:35:06;102216.22;;;29.76;27.33
49397;BME280;35615;41.410;2.194;2023-11-19T10:37:39;102203.34;;;29.98;27.37
49397;BME280;35615;41.410;2.194;2023-11-19T10:40:07;102205.16;;;30.43;28.05
49397;BME280;35615;41.410;2.194;2023-11-19T10:42:44;102203.19;;;30.51;26.94
49397;BME280;35615;41.410;2.194;2023-11-19T10:45:26;102195.28;;;30.86;26.40
49397;BME280;35615;41.410;2.194;2023-11-19T10:47:54;102198.94;;;31.21;28.41
49397;BME280;35615;41.410;2.194;2023-11-19T10:50:27;102195.13;;;31.31;28.37
49397;BME280;35615;41.410;2.194;2023-11-19T11:08:20;102170.47;;;33.83;25.87
49397;BME280;35615;41.410;2.194;2023-11-19T11:10:57;102164.09;;;33.87;25.80
49397;BME280;35615;41.410;2.194;2023-11-19T11:13:26;102161.66;;;34.04;25.29
49397;BME280;35615;41.410;2.194;2023-11-19T11:16:04;102160.47;;;34.11;24.96
49397;BME280;35615;41.410;2.194;2023-11-19T11:18:35;102144.13;;;34.64;24.95
49397;BME280;35615;41.410;2.194;2023-11-19T11:21:10;102137.69;;;34.68;23.57
49397;BME280;35615;41.410;2.194;2023-11-19T11:27:04;102130.75;;;35.06;22.45
49397;BME280;35615;41.410;2.194;2023-11-19T11:38:53;102115.41;;;35.90;22.71
49397;BME280;35615;41.410;2.194;2023-11-19T11:41:27;102108.47;;;36.04;22.71
49397;BME280;35615;41.410;2.194;2023-11-19T11:43:58;102106.00;;;36.19;22.29
49397;BME280;35615;41.410;2.194;2023-11-19T11:46:58;102109.72;;;36.16;21.31
49397;BME280;35615;41.410;2.194;2023-11-19T11:49:31;102104.44;;;36.32;21.42
49397;BME280;35615;41.410;2.194;2023-11-19T11:52:09;102094.91;;;36.62;22.38
49397;BME280;35615;41.410;2.194;2023-11-19T11:54:44;102103.47;;;36.71;21.52
49397;BME280;35615;41.410;2.194;2023-11-19T11:57:13;102091.88;;;36.69;21.90
49397;BME280;35615;41.410;2.194;2023-11-19T11:59:47;102096.88;;;36.95;21.82
49397;BME280;35615;41.410;2.194;2023-11-19T12:02:25;102093.19;;;37.13;20.93
49397;BME280;35615;41.410;2.194;2023-11-19T12:04:55;102085.91;;;37.33;21.61
49397;BME280;35615;41.410;2.194;2023-11-19T12:07:36;102083.78;;;37.39;21.37
49397;BME280;35615;41.410;2.194;2023-11-19T12:10:20;102079.03;;;37.10;20.63
49397;BME280;35615;41.410;2.194;2023-11-19T12:13:01;102071.25;;;37.38;20.84
49397;BME280;35615;41.410;2.194;2023-11-19T12:15:33;102070.28;;;37.72;20.41
49397;BME280;35615;41.410;2.194;2023-11-19T12:18:03;102072.22;;;37.37;20.55
49397;BME280;35615;41.410;2.194;2023-11-19T12:20:33;102069.84;;;37.14;20.71
49397;BME280;35615;41.410;2.194;2023-11-19T12:23:10;102068.97;;;37.31;20.79
49397;BME280;35615;41.410;2.194;2023-11-19T12:25:43;102067.63;;;37.55;20.24
49397;BME280;35615;41.410;2.194;2023-11-19T12:28:19;102060.63;;;37.35;20.74
49397;BME280;35615;41.410;2.194;2023-11-19T12:30:47;102057.69;;;37.40;20.68
49397;BME280;35615;41.410;2.194;2023-11-19T12:33:16;102061.41;;;37.70;20.64
49397;BME280;35615;41.410;2.194;2023-11-19T12:35:46;102061.63;;;37.83;20.82
49397;BME280;35615;41.410;2.194;2023-11-19T12:38:31;102060.25;;;37.08;21.84
49397;BME280;35615;41.410;2.194;2023-11-19T12:41:09;102055.03;;;36.69;21.60
49397;BME280;35615;41.410;2.194;2023-11-19T12:43:40;102045.19;;;36.87;22.09
49397;BME280;35615;41.410;2.194;2023-11-19T12:46:17;102049.75;;;36.67;22.18
49397;BME280;35615;41.410;2.194;2023-11-19T12:49:00;102044.78;;;35.86;22.83
49397;BME280;35615;41.410;2.194;2023-11-19T12:51:33;102044.38;;;36.31;22.88
49397;BME280;35615;41.410;2.194;2023-11-19T12:54:06;102039.13;;;36.28;22.33
49397;BME280;35615;41.410;2.194;2023-11-19T12:56:37;102034.22;;;35.82;22.92
49397;BME280;35615;41.410;2.194;2023-11-19T12:59:14;102033.00;;;36.07;22.58
49397;BME280;35615;41.410;2.194;2023-11-19T13:01:57;102030.03;;;35.95;22.39
49397;BME280;35615;41.410;2.194;2023-11-19T13:04:32;102024.75;;;36.11;23.14
49397;BME280;35615;41.410;2.194;2023-11-19T13:07:02;102025.28;;;36.00;23.16
49397;BME280;35615;41.410;2.194;2023-11-19T13:09:33;102023.84;;;35.93;23.28
49397;BME280;35615;41.410;2.194;2023-11-19T13:12:14;102025.28;;;35.81;22.66
49397;BME280;35615;41.410;2.194;2023-11-19T13:14:45;102019.03;;;35.99;23.12
49397;BME280;35615;41.410;2.194;2023-11-19T13:17:17;102018.06;;;36.00;22.61
49397;BME280;35615;41.410;2.194;2023-11-19T13:19:47;102015.50;;;35.78;22.75
49397;BME280;35615;41.410;2.194;2023-11-19T13:22:25;102005.41;;;36.02;22.51
49397;BME280;35615;41.410;2.194;2023-11-19T13:24:59;102001.28;;;35.76;22.23
49397;BME280;35615;41.410;2.194;2023-11-19T13:27:32;102002.94;;;35.21;22.66
49397;BME280;35615;41.410;2.194;2023-11-19T13:30:05;102005.28;;;35.29;22.46
49397;BME280;35615;41.410;2.194;2023-11-19T13:32:53;101998.97;;;35.30;22.53
49397;BME280;35615;41.410;2.194;2023-11-19T13:35:24;101990.41;;;35.01;22.66
49397;BME280;35615;41.410;2.194;2023-11-19T13:37:54;101991.81;;;35.10;22.58
49397;BME280;35615;41.410;2.194;2023-11-19T13:40:35;101986.66;;;35.05;23.29
49397;BME280;35615;41.410;2.194;2023-11-19T13:43:13;101987.75;;;34.79;22.87
49397;BME280;35615;41.410;2.194;2023-11-19T13:45:52;101983.78;;;34.67;23.49
49397;BME280;35615;41.410;2.194;2023-11-19T13:48:32;101978.94;;;34.55;23.62